Time;durP1;ratioP1;P1;durP2;ratioP2;P2;SDS_P1;SDS_P2;PMS_P1;PMS_P2;Temp;Humidity;BMP_temperature;BMP_pressure;BME280_temperature;BME280_humidity;BME280_pressure;Samples;Min_cycle;Max_cycle;Signal;HPM_P1;HPM_P2
2022/07/28 00:00:15;;;;;;;4.10;3.60;;;;;;;20.55;75.60;100976.92;108474;1236;73898;-75
2022/07/28 00:03:03;;;;;;;5.70;3.70;;;;;;;20.54;74.53;100981.44;108734;1236;62254;-74
2022/07/28 00:05:30;;;;;;;5.50;3.60;;;;;;;20.54;74.40;100984.75;108332;1236;59058;-76
2022/07/28 00:07:57;;;;;;;4.60;3.60;;;;;;;20.52;73.91;100983.79;108750;1236;73678;-74
2022/07/28 00:10:25;;;;;;;6.30;4.10;;;;;;;20.47;74.52;100988.36;108569;1236;72097;-75
2022/07/28 00:12:53;;;;;;;6.50;3.70;;;;;;;20.44;75.29;100988.89;108957;1234;69408;-76
2022/07/28 00:15:20;;;;;;;5.40;3.50;;;;;;;20.42;74.86;100985.70;108645;1236;64520;-76
2022/07/28 00:17:47;;;;;;;4.90;3.60;;;;;;;20.36;75.79;100982.77;108829;1235;61950;-75
2022/07/28 00:20:15;;;;;;;4.30;3.70;;;;;;;20.33;75.44;100979.38;108721;1234;61102;-75
2022/07/28 00:22:43;;;;;;;4.90;3.90;;;;;;;20.30;76.56;100977.59;108556;1236;62524;-75
2022/07/28 00:25:11;;;;;;;5.10;3.80;;;;;;;20.31;76.41;100976.50;108405;1236;72335;-74
2022/07/28 00:27:38;;;;;;;5.30;3.90;;;;;;;20.30;75.42;100974.81;108660;1235;70941;-75
2022/07/28 00:30:07;;;;;;;4.20;3.70;;;;;;;20.30;75.35;100975.34;108640;1235;75390;-72
2022/07/28 00:32:36;;;;;;;5.80;3.90;;;;;;;20.30;75.37;100980.67;108370;1234;58650;-74
2022/07/28 00:35:05;;;;;;;4.30;3.50;;;;;;;20.29;75.22;100984.95;108370;1236;61308;-75
2022/07/28 00:37:35;;;;;;;5.20;3.90;;;;;;;20.28;75.50;100983.29;108698;1235;63593;-76
2022/07/28 00:40:08;;;;;;;5.20;3.90;;;;;;;20.24;76.11;100982.04;108535;1236;72309;-74
2022/07/28 00:42:35;;;;;;;6.00;3.40;;;;;;;20.22;76.23;100975.32;108492;1236;60750;-74
2022/07/28 00:45:04;;;;;;;7.20;3.90;;;;;;;20.21;76.20;100973.89;108599;1236;72153;-73
2022/07/28 00:47:31;;;;;;;5.90;3.40;;;;;;;20.18;76.09;100973.32;108564;1236;63320;-75
2022/07/28 00:50:03;;;;;;;4.70;3.70;;;;;;;20.12;76.55;100984.02;108913;1236;62176;-75
2022/07/28 00:52:32;;;;;;;6.20;3.80;;;;;;;20.03;77.36;100982.31;109093;1235;63592;-76
2022/07/28 00:55:01;;;;;;;4.40;3.40;;;;;;;20.02;77.01;100977.47;109182;1235;60708;-76
2022/07/28 00:57:29;;;;;;;5.20;4.00;;;;;;;20.03;76.74;100977.08;109236;1234;60047;-76
2022/07/28 00:59:56;;;;;;;5.00;3.70;;;;;;;20.03;76.22;100973.16;108678;1236;63098;-75
2022/07/28 01:02:23;;;;;;;4.90;3.50;;;;;;;20.01;76.35;100970.52;108684;1235;63032;-75
2022/07/28 01:04:51;;;;;;;4.80;3.50;;;;;;;19.97;76.66;100976.95;108824;1235;57504;-74
2022/07/28 01:07:36;;;;;;;4.20;3.30;;;;;;;19.97;76.59;100986.04;108846;1234;64687;-74
2022/07/28 01:10:28;;;;;;;7.40;3.70;;;;;;;19.95;76.82;100990.70;109094;1235;61418;-74
2022/07/28 01:13:25;;;;;;;5.50;3.30;;;;;;;19.94;76.53;100992.59;109167;1235;69965;-75
2022/07/28 01:16:04;;;;;;;5.70;3.30;;;;;;;19.91;76.44;100988.66;108792;1235;72521;-76
2022/07/28 01:18:43;;;;;;;4.60;3.70;;;;;;;19.91;76.35;100989.31;108981;1234;62767;-76
2022/07/28 01:21:14;;;;;;;6.50;3.60;;;;;;;19.93;76.08;100981.52;108986;1235;58960;-75
2022/07/28 01:24:12;;;;;;;5.00;3.70;;;;;;;19.98;76.48;100972.55;109017;1235;73505;-74
2022/07/28 01:27:07;;;;;;;5.10;3.70;;;;;;;19.99;75.74;100967.77;108960;1235;72987;-74
2022/07/28 01:29:56;;;;;;;5.40;3.70;;;;;;;19.96;75.93;100968.14;109002;1235;60433;-74
2022/07/28 01:32:48;;;;;;;4.70;3.50;;;;;;;19.88;76.56;100971.30;108944;1235;71274;-74
2022/07/28 01:35:22;;;;;;;5.40;3.80;;;;;;;19.81;76.94;100976.57;108792;1235;58950;-72
2022/07/28 01:37:56;;;;;;;5.40;3.80;;;;;;;19.68;77.58;100978.05;108782;1235;60783;-76
2022/07/28 01:40:28;;;;;;;4.30;3.60;;;;;;;19.66;77.07;100983.21;108466;1235;73552;-73
2022/07/28 01:43:00;;;;;;;5.80;4.00;;;;;;;19.61;77.03;100980.83;108751;1235;72588;-73
2022/07/28 01:45:29;;;;;;;4.50;3.90;;;;;;;19.57;77.26;100973.48;108826;1235;59493;-76
2022/07/28 01:48:00;;;;;;;5.00;4.10;;;;;;;19.53;77.26;100972.33;108807;1236;62595;-74
2022/07/28 01:50:30;;;;;;;4.90;3.60;;;;;;;19.48;77.80;100972.81;109225;1235;58992;-76
2022/07/28 01:52:58;;;;;;;4.80;3.70;;;;;;;19.48;77.96;100975.83;108785;1236;58222;-78
2022/07/28 01:55:28;;;;;;;4.00;3.40;;;;;;;19.45;78.07;100977.59;108566;1236;73526;-74
2022/07/28 01:57:56;;;;;;;6.40;3.90;;;;;;;19.44;78.23;100977.94;108694;1235;73326;-75
2022/07/28 02:00:26;;;;;;;6.40;4.40;;;;;;;19.41;78.08;100977.14;108426;1236;69170;-74
2022/07/28 02:02:57;;;;;;;5.40;3.90;;;;;;;19.37;78.08;100974.75;108476;1236;62811;-74
2022/07/28 02:05:25;;;;;;;4.90;3.90;;;;;;;19.37;78.28;100979.20;108709;1236;58965;-74
2022/07/28 02:07:54;;;;;;;6.50;4.30;;;;;;;19.30;78.26;100978.44;108590;1236;60358;-74
2022/07/28 02:10:23;;;;;;;6.40;4.20;;;;;;;19.28;78.43;100978.33;108726;1236;74122;-73
2022/07/28 02:12:53;;;;;;;4.50;3.50;;;;;;;19.25;78.58;100978.12;108734;1236;72253;-75
2022/07/28 02:15:22;;;;;;;4.00;3.60;;;;;;;19.21;78.68;100977.80;108791;1235;60630;-74
2022/07/28 02:17:51;;;;;;;6.90;3.90;;;;;;;19.20;78.22;100974.42;108805;1236;63389;-73
2022/07/28 02:20:20;;;;;;;5.10;4.00;;;;;;;19.17;77.93;100976.08;108952;1235;62044;-75
2022/07/28 02:22:52;;;;;;;6.20;3.70;;;;;;;19.17;77.57;100986.92;108865;1235;62391;-74
2022/07/28 02:25:20;;;;;;;6.20;3.80;;;;;;;19.14;77.74;100990.92;108812;1236;63290;-74
2022/07/28 02:28:02;;;;;;;7.20;4.10;;;;;;;19.10;77.89;100986.56;108846;1234;69762;-73
2022/07/28 02:30:44;;;;;;;4.50;3.60;;;;;;;19.11;77.68;100982.07;108631;1235;59704;-75
2022/07/28 02:33:24;;;;;;;7.40;3.60;;;;;;;19.05;77.76;100984.44;108799;1235;72878;-74
2022/07/28 02:36:19;;;;;;;5.10;3.60;;;;;;;19.03;77.79;100980.71;108696;1236;58735;-74
2022/07/28 02:38:49;;;;;;;4.80;3.30;;;;;;;18.97;78.15;100984.20;108715;1236;59021;-75
2022/07/28 02:41:24;;;;;;;6.00;3.70;;;;;;;18.94;78.40;100990.37;108748;1236;73634;-75
2022/07/28 02:44:00;;;;;;;4.50;3.50;;;;;;;18.91;78.20;100997.14;108853;1235;71555;-75
2022/07/28 02:46:43;;;;;;;5.40;3.80;;;;;;;18.88;78.44;101000.48;108969;1236;60556;-75
2022/07/28 02:49:22;;;;;;;4.60;3.20;;;;;;;18.86;78.18;101002.08;108937;1235;73830;-75
2022/07/28 02:51:52;;;;;;;4.70;3.50;;;;;;;18.82;78.57;101004.84;108797;1235;59150;-74
2022/07/28 02:54:22;;;;;;;4.60;3.50;;;;;;;18.80;79.24;101004.46;108794;1234;60477;-75
2022/07/28 02:56:54;;;;;;;4.80;3.90;;;;;;;18.83;78.80;101013.77;108966;1234;63291;-77
2022/07/28 02:59:22;;;;;;;5.50;3.50;;;;;;;18.82;78.43;101019.26;108881;1234;71562;-75
2022/07/28 03:01:51;;;;;;;6.40;3.80;;;;;;;18.81;78.55;101021.34;109010;1235;59994;-75
2022/07/28 03:07:05;;;;;;;5.90;3.90;;;;;;;18.83;77.99;101013.54;108767;1236;59225;-74
2022/07/28 03:09:40;;;;;;;5.50;3.90;;;;;;;18.85;78.09;101018.69;108937;1235;61325;-73
2022/07/28 03:12:09;;;;;;;4.30;3.50;;;;;;;18.87;78.02;101013.30;109090;1235;63713;-74
2022/07/28 03:14:37;;;;;;;6.50;3.40;;;;;;;18.89;78.17;101018.39;108996;1235;71483;-74
2022/07/28 03:17:05;;;;;;;4.60;3.60;;;;;;;18.92;77.86;101019.54;108511;1237;71102;-75
2022/07/28 03:19:33;;;;;;;5.00;3.60;;;;;;;18.93;77.90;101020.30;108778;1236;63685;-75
2022/07/28 03:22:01;;;;;;;6.30;4.30;;;;;;;18.98;77.27;101025.92;108607;1235;63006;-75
2022/07/28 03:24:34;;;;;;;6.80;4.00;;;;;;;19.02;77.30;101033.14;108650;1236;58974;-75
2022/07/28 03:27:04;;;;;;;6.20;3.90;;;;;;;19.05;77.30;101032.64;109041;1234;72917;-75
2022/07/28 03:29:34;;;;;;;9.10;3.80;;;;;;;19.09;77.27;101034.39;108830;1234;61947;-74
2022/07/28 03:32:02;;;;;;;6.10;3.70;;;;;;;19.12;77.14;101035.77;108608;1235;70558;-77
2022/07/28 03:34:29;;;;;;;5.50;3.60;;;;;;;19.14;77.42;101034.11;108798;1236;62962;-74
2022/07/28 03:37:05;;;;;;;5.20;3.70;;;;;;;19.18;77.17;101036.25;108640;1236;62184;-74
2022/07/28 03:39:44;;;;;;;4.70;3.40;;;;;;;19.22;76.98;101039.70;109108;1234;61996;-76
2022/07/28 03:42:14;;;;;;;6.40;3.60;;;;;;;19.19;77.06;101043.48;108308;1238;64522;-74
2022/07/28 03:44:42;;;;;;;4.60;3.50;;;;;;;19.21;76.82;101044.41;108447;1236;70777;-76
2022/07/28 03:47:10;;;;;;;5.40;3.70;;;;;;;19.22;76.74;101055.00;108430;1236;71127;-75
2022/07/28 03:49:37;;;;;;;4.60;3.80;;;;;;;19.22;76.52;101055.40;108604;1236;63770;-75
2022/07/28 03:52:05;;;;;;;4.30;3.60;;;;;;;19.15;77.02;101055.20;108568;1236;62848;-76
2022/07/28 03:54:32;;;;;;;5.00;4.00;;;;;;;19.14;76.89;101055.16;108459;1238;57388;-76
2022/07/28 03:57:00;;;;;;;5.10;3.80;;;;;;;19.15;77.04;101056.05;108414;1236;73060;-76
2022/07/28 03:59:27;;;;;;;6.30;3.70;;;;;;;19.16;77.17;101060.44;108564;1236;61933;-76
2022/07/28 04:01:55;;;;;;;5.10;3.80;;;;;;;19.18;76.91;101058.47;108552;1236;69657;-76
2022/07/28 04:04:23;;;;;;;5.50;3.90;;;;;;;19.20;76.80;101058.24;108668;1236;74408;-76
2022/07/28 04:06:50;;;;;;;7.10;4.00;;;;;;;19.23;77.03;101058.10;108815;1238;59043;-77
2022/07/28 04:09:17;;;;;;;6.70;3.80;;;;;;;19.28;76.59;101053.52;108913;1236;61341;-76
2022/07/28 04:11:45;;;;;;;4.60;4.20;;;;;;;19.29;76.63;101055.56;108916;1236;72838;-76
2022/07/28 04:14:12;;;;;;;8.10;4.10;;;;;;;19.29;76.55;101058.42;109145;1235;61257;-76
2022/07/28 04:16:43;;;;;;;5.90;4.20;;;;;;;19.24;77.10;101056.20;109112;1235;70621;-77
2022/07/28 04:19:11;;;;;;;6.50;4.10;;;;;;;19.28;76.82;101058.08;108755;1235;74489;-75
2022/07/28 04:21:38;;;;;;;8.60;4.40;;;;;;;19.35;76.27;101057.59;108669;1234;61727;-74
2022/07/28 04:24:08;;;;;;;4.70;3.90;;;;;;;19.28;76.96;101056.46;108786;1235;60456;-74
2022/07/28 04:26:36;;;;;;;7.40;4.10;;;;;;;19.32;76.45;101051.36;108788;1235;73690;-76
2022/07/28 04:29:04;;;;;;;6.60;4.40;;;;;;;19.30;76.91;101056.16;108846;1234;71694;-75
2022/07/28 04:31:32;;;;;;;6.00;3.70;;;;;;;19.25;77.27;101055.78;108769;1236;71336;-74
2022/07/28 04:33:59;;;;;;;4.60;4.00;;;;;;;19.40;76.43;101061.86;108848;1235;62837;-74
2022/07/28 04:36:26;;;;;;;6.00;3.80;;;;;;;19.52;76.12;101058.67;108801;1235;62081;-75
2022/07/28 04:38:55;;;;;;;5.60;4.00;;;;;;;19.61;75.62;101064.92;108851;1236;59944;-75
2022/07/28 04:41:22;;;;;;;6.20;3.70;;;;;;;19.70;75.32;101061.48;109006;1235;73675;-75
2022/07/28 04:43:50;;;;;;;4.60;4.00;;;;;;;19.81;75.15;101063.85;108868;1235;70257;-76
2022/07/28 04:46:17;;;;;;;5.70;3.80;;;;;;;19.92;74.66;101068.02;108908;1236;60163;-73
2022/07/28 04:48:45;;;;;;;5.50;3.90;;;;;;;19.99;74.35;101073.33;108904;1235;62390;-75
2022/07/28 04:51:13;;;;;;;4.60;4.10;;;;;;;20.07;73.90;101077.95;108885;1235;60868;-77
2022/07/28 04:53:40;;;;;;;6.40;3.90;;;;;;;20.08;73.74;101079.98;108989;1234;58785;-75
2022/07/28 04:56:07;;;;;;;4.90;3.60;;;;;;;20.08;73.41;101088.41;109076;1236;73019;-74
2022/07/28 04:58:35;;;;;;;5.40;4.00;;;;;;;20.10;73.68;101092.08;108564;1235;628443;-74
2022/07/28 05:01:03;;;;;;;6.00;4.20;;;;;;;20.18;73.42;101092.13;108945;1236;59104;-75
2022/07/28 05:03:31;;;;;;;7.20;4.00;;;;;;;20.21;73.13;101096.89;108785;1236;62566;-75
2022/07/28 05:06:03;;;;;;;5.20;4.20;;;;;;;20.23;73.05;101098.13;108716;1236;61426;-74
2022/07/28 05:08:31;;;;;;;5.10;3.40;;;;;;;20.30;72.94;101098.45;108773;1236;60589;-76
2022/07/28 05:10:58;;;;;;;4.30;3.90;;;;;;;20.39;72.60;101100.35;108818;1236;63315;-76
2022/07/28 05:13:25;;;;;;;4.10;3.50;;;;;;;20.42;72.36;101100.66;109107;1237;60856;-76
2022/07/28 05:16:01;;;;;;;5.20;4.00;;;;;;;20.48;72.01;101097.56;109056;1235;59067;-76
2022/07/28 05:18:29;;;;;;;5.50;3.90;;;;;;;20.59;71.84;101098.36;109011;1236;73946;-76
2022/07/28 05:20:56;;;;;;;4.50;3.50;;;;;;;20.63;71.48;101101.61;108691;1238;58987;-76
2022/07/28 05:23:24;;;;;;;5.30;4.00;;;;;;;20.57;71.62;101103.89;108800;1236;58692;-76
2022/07/28 05:25:52;;;;;;;4.50;3.60;;;;;;;20.62;71.33;101104.16;108899;1236;61994;-76
2022/07/28 05:28:19;;;;;;;6.00;3.70;;;;;;;20.54;71.44;101102.11;108661;1236;72313;-77
2022/07/28 05:30:47;;;;;;;4.30;3.70;;;;;;;20.59;71.25;101100.78;108792;1237;70327;-76
2022/07/28 05:33:15;;;;;;;6.20;4.20;;;;;;;20.58;71.19;101103.80;108777;1238;63556;-78
2022/07/28 05:35:44;;;;;;;4.00;3.60;;;;;;;20.62;70.99;101098.40;108852;1236;58751;-78
2022/07/28 05:38:11;;;;;;;4.70;3.80;;;;;;;20.66;70.90;101092.45;108888;1236;57455;-79
2022/07/28 05:40:38;;;;;;;5.30;3.80;;;;;;;20.68;70.94;101097.77;109101;1235;73722;-77
2022/07/28 05:43:06;;;;;;;4.90;4.00;;;;;;;20.76;70.62;101099.97;109216;1235;61508;-77
2022/07/28 05:45:33;;;;;;;4.70;3.70;;;;;;;20.81;70.35;101100.94;109220;1234;60485;-75
2022/07/28 05:48:00;;;;;;;5.90;4.10;;;;;;;20.79;70.21;101098.09;109027;1235;73172;-76
2022/07/28 05:50:28;;;;;;;4.70;4.10;;;;;;;20.83;70.30;101101.19;109575;1235;57447;-75
2022/07/28 05:52:55;;;;;;;6.10;3.70;;;;;;;20.91;70.15;101106.92;109415;1235;58952;-76
2022/07/28 05:55:22;;;;;;;5.40;4.10;;;;;;;20.99;69.90;101109.02;109106;1235;73616;-75
2022/07/28 05:57:50;;;;;;;5.80;4.20;;;;;;;21.05;69.77;101115.63;109430;1234;72777;-76
2022/07/28 06:00:20;;;;;;;6.60;4.70;;;;;;;21.03;69.70;101110.48;109368;1235;60648;-77
2022/07/28 06:02:49;;;;;;;8.50;4.60;;;;;;;21.13;69.82;101110.83;109614;1234;62414;-77
2022/07/28 06:05:20;;;;;;;6.90;4.10;;;;;;;21.24;69.27;101118.04;109360;1234;63127;-77
2022/07/28 06:07:51;;;;;;;7.40;4.10;;;;;;;21.38;69.05;101122.70;109609;1235;60988;-77
2022/07/28 06:10:22;;;;;;;8.30;4.50;;;;;;;21.48;68.56;101110.45;109830;1235;62985;-78
2022/07/28 06:12:53;;;;;;;18.40;5.10;;;;;;;21.53;68.10;101108.10;109036;1236;62153;-73
2022/07/28 06:15:26;;;;;;;8.00;4.10;;;;;;;21.72;67.66;101110.94;108556;1237;70192;-72
2022/07/28 06:17:54;;;;;;;4.90;4.00;;;;;;;21.88;67.27;101113.14;108404;1237;74511;-74
2022/07/28 06:20:24;;;;;;;5.50;4.20;;;;;;;22.07;67.01;101115.50;108698;1235;60940;-75
2022/07/28 06:22:54;;;;;;;7.50;4.50;;;;;;;22.17;66.05;101114.65;108843;1235;59002;-71
2022/07/28 06:25:27;;;;;;;8.20;4.20;;;;;;;22.08;66.33;101119.91;108835;1234;62950;-72
2022/07/28 06:27:57;;;;;;;4.80;4.30;;;;;;;22.15;66.12;101120.38;108720;1235;72376;-70
2022/07/28 06:30:26;;;;;;;5.40;3.90;;;;;;;22.30;65.93;101120.66;108789;1235;60430;-72
2022/07/28 06:32:56;;;;;;;6.20;4.00;;;;;;;22.46;65.35;101122.45;108497;1238;62707;-73
2022/07/28 06:35:24;;;;;;;5.40;4.10;;;;;;;22.53;65.03;101123.46;108510;1237;61254;-72
2022/07/28 06:37:52;;;;;;;6.00;4.30;;;;;;;22.69;64.53;101122.47;108599;1238;57504;-73
2022/07/28 06:40:21;;;;;;;5.00;4.40;;;;;;;22.85;64.08;101127.36;108587;1237;62098;-72
2022/07/28 06:42:50;;;;;;;7.90;4.60;;;;;;;22.90;63.87;101126.36;108966;1235;61714;-72
2022/07/28 06:45:18;;;;;;;5.40;4.30;;;;;;;23.10;63.55;101128.42;108674;1235;70543;-75
2022/07/28 06:47:49;;;;;;;8.40;4.70;;;;;;;23.05;63.18;101124.58;108321;1236;74598;-73
2022/07/28 06:50:18;;;;;;;12.70;5.10;;;;;;;23.24;62.84;101120.41;108543;1236;60979;-74
2022/07/28 06:52:57;;;;;;;6.10;4.40;;;;;;;23.24;62.23;101121.58;108550;1238;58896;-75
2022/07/28 06:55:26;;;;;;;8.80;4.40;;;;;;;23.07;62.67;101122.05;108510;1238;73661;-73
2022/07/28 06:58:03;;;;;;;6.90;4.40;;;;;;;23.27;62.66;101124.28;108219;1238;61964;-71
2022/07/28 07:00:31;;;;;;;6.00;4.20;;;;;;;23.25;62.17;101123.07;108744;1235;70130;-71
2022/07/28 07:02:59;;;;;;;6.50;4.60;;;;;;;23.32;62.19;101124.39;108605;1235;62901;-73
2022/07/28 07:05:30;;;;;;;6.50;4.80;;;;;;;23.48;61.70;101124.27;108824;1235;61349;-71
2022/07/28 07:07:58;;;;;;;7.20;4.40;;;;;;;23.42;61.61;101123.34;108759;1235;58944;-71
2022/07/28 07:10:26;;;;;;;5.50;4.30;;;;;;;23.36;61.59;101123.79;108815;1235;73414;-73
2022/07/28 07:12:53;;;;;;;5.40;4.20;;;;;;;23.21;62.08;101126.81;108396;1238;73181;-72
2022/07/28 07:15:21;;;;;;;7.00;4.40;;;;;;;23.44;61.50;101128.93;108801;1235;60482;-68
2022/07/28 07:17:48;;;;;;;6.00;4.30;;;;;;;23.67;60.92;101125.52;108679;1235;73642;-69
2022/07/28 07:20:16;;;;;;;5.20;4.10;;;;;;;23.75;60.53;101127.69;108754;1235;58917;-70
2022/07/28 07:22:46;;;;;;;5.10;4.00;;;;;;;23.88;60.54;101131.82;108666;1235;61165;-69
2022/07/28 07:25:17;;;;;;;7.30;4.00;;;;;;;23.99;59.68;101137.73;108485;1238;74096;-72
2022/07/28 07:27:45;;;;;;;6.20;3.90;;;;;;;24.10;59.35;101145.73;108633;1238;62214;-74
2022/07/28 07:30:15;;;;;;;5.00;4.20;;;;;;;24.10;58.89;101149.78;108145;1238;60630;-73
2022/07/28 07:32:42;;;;;;;5.40;4.10;;;;;;;23.92;58.70;101142.60;108556;1236;63246;-71
2022/07/28 07:35:11;;;;;;;6.70;3.70;;;;;;;23.91;58.93;101147.48;108802;1236;60675;-72
2022/07/28 07:37:39;;;;;;;6.50;3.90;;;;;;;23.96;58.96;101146.10;108716;1235;61597;-70
2022/07/28 07:40:08;;;;;;;5.40;3.90;;;;;;;24.23;57.69;101150.05;108752;1235;74312;-69
2022/07/28 07:42:37;;;;;;;4.90;3.70;;;;;;;24.50;57.51;101147.91;108487;1235;72752;-70
2022/07/28 07:45:05;;;;;;;4.80;3.80;;;;;;;24.50;56.81;101146.41;108854;1235;61143;-72
2022/07/28 07:47:33;;;;;;;4.00;3.60;;;;;;;24.54;56.87;101149.48;108493;1238;73992;-72
2022/07/28 07:50:00;;;;;;;5.30;4.00;;;;;;;24.55;56.42;101146.56;108823;1235;59093;-71
2022/07/28 07:52:31;;;;;;;4.70;3.70;;;;;;;24.79;55.75;101145.62;108473;1238;57526;-74
2022/07/28 07:54:59;;;;;;;4.80;3.60;;;;;;;24.88;55.40;101144.86;108717;1235;74058;-71
2022/07/28 07:57:26;;;;;;;4.50;3.90;;;;;;;24.99;55.11;101148.73;108496;1236;61966;-71
2022/07/28 07:59:54;;;;;;;4.10;3.70;;;;;;;25.06;55.10;101144.82;108426;1238;70993;-74
2022/07/28 08:02:21;;;;;;;4.50;3.30;;;;;;;25.03;54.46;101141.33;108496;1236;63661;-71
2022/07/28 08:04:49;;;;;;;4.80;3.70;;;;;;;25.04;53.59;101140.48;108822;1235;61270;-72
2022/07/28 08:07:16;;;;;;;5.10;3.50;;;;;;;24.99;53.81;101136.65;108767;1235;59059;-71
2022/07/28 08:09:48;;;;;;;5.50;3.40;;;;;;;25.17;53.75;101135.46;108730;1235;63605;-71
2022/07/28 08:12:16;;;;;;;5.90;3.60;;;;;;;25.27;53.25;101136.67;108744;1235;71188;-71
2022/07/28 08:14:52;;;;;;;4.50;3.60;;;;;;;25.31;52.74;101143.95;108801;1235;59917;-72
2022/07/28 08:17:22;;;;;;;3.40;2.90;;;;;;;25.32;52.66;101145.68;108764;1234;63344;-73
2022/07/28 08:19:54;;;;;;;6.70;3.40;;;;;;;25.44;52.57;101147.55;108716;1235;61240;-70
2022/07/28 08:22:22;;;;;;;6.00;3.30;;;;;;;25.30;52.88;101142.16;108828;1235;61581;-72
2022/07/28 08:24:50;;;;;;;5.50;3.30;;;;;;;25.37;52.39;101144.67;108724;1234;74091;-71
2022/07/28 08:27:18;;;;;;;4.40;3.10;;;;;;;25.38;51.34;101146.48;108594;1237;73117;-73
2022/07/28 08:29:45;;;;;;;4.30;3.00;;;;;;;25.66;51.15;101144.33;108687;1236;60415;-72
2022/07/28 08:32:14;;;;;;;3.90;2.50;;;;;;;25.70;50.66;101143.77;108705;1237;62520;-75
2022/07/28 08:34:42;;;;;;;5.30;3.30;;;;;;;25.95;50.51;101143.02;109000;1234;60621;-73
2022/07/28 08:37:10;;;;;;;4.40;3.10;;;;;;;26.14;49.84;101137.66;108621;1238;58996;-72
2022/07/28 08:39:37;;;;;;;4.10;2.90;;;;;;;26.14;49.58;101138.56;108838;1235;62054;-77
2022/07/28 08:42:09;;;;;;;4.60;3.00;;;;;;;26.11;49.42;101136.22;108952;1235;72625;-76
2022/07/28 08:44:43;;;;;;;4.40;2.80;;;;;;;26.17;49.80;101136.94;108642;1238;71989;-75
2022/07/28 08:47:12;;;;;;;4.40;2.90;;;;;;;26.31;49.01;101138.73;108947;1235;74316;-77
2022/07/28 08:49:41;;;;;;;4.10;2.90;;;;;;;26.54;48.73;101140.02;109185;1237;59071;-76
2022/07/28 08:52:13;;;;;;;3.50;2.50;;;;;;;26.67;48.14;101137.84;109061;1234;58905;-77
2022/07/28 08:54:44;;;;;;;6.00;3.00;;;;;;;26.76;47.40;101135.29;109315;1235;73540;-75
2022/07/28 08:57:35;;;;;;;6.10;2.90;;;;;;;27.01;46.77;101136.00;108906;1235;62384;-75
2022/07/28 09:00:05;;;;;;;4.40;3.10;;;;;;;27.32;45.52;101134.42;108791;1235;69761;-74
2022/07/28 09:02:37;;;;;;;6.00;2.90;;;;;;;27.56;45.50;101126.17;108686;1237;63300;-74
2022/07/28 09:05:07;;;;;;;5.50;2.60;;;;;;;27.69;45.00;101125.06;109034;1237;61409;-75
2022/07/28 09:07:40;;;;;;;2.90;2.60;;;;;;;27.98;44.97;101125.78;109192;1235;59048;-76
2022/07/28 09:10:10;;;;;;;3.20;2.70;;;;;;;28.33;44.31;101125.02;109271;1238;62147;-78
2022/07/28 09:12:38;;;;;;;5.00;2.50;;;;;;;28.39;43.66;101126.25;109013;1235;70404;-77
2022/07/28 09:15:10;;;;;;;2.60;2.40;;;;;;;28.08;43.64;101126.84;109061;1235;68498;-76
2022/07/28 09:17:40;;;;;;;3.20;2.40;;;;;;;28.19;43.60;101132.16;109056;1236;63083;-75
2022/07/28 09:20:09;;;;;;;3.70;2.40;;;;;;;28.10;43.28;101132.16;108837;1236;59097;-76
2022/07/28 09:23:22;;;;;;;3.20;2.40;;;;;;;27.85;43.80;101125.20;109034;1234;58879;-79
2022/07/28 09:26:30;;;;;;;3.60;2.30;;;;;;;27.97;43.66;101121.05;107926;1242;73579;-78
2022/07/28 09:29:03;;;;;;;4.60;2.50;;;;;;;27.97;43.81;101131.28;107919;1244;62177;-78
2022/07/28 09:31:31;;;;;;;4.20;2.50;;;;;;;27.46;44.56;101133.01;108640;1235;71583;-77
2022/07/28 09:34:06;;;;;;;5.20;2.70;;;;;;;27.45;44.11;101135.00;108536;1236;74560;-76
2022/07/28 09:36:40;;;;;;;3.60;2.30;;;;;;;27.44;44.36;101129.67;108890;1235;59027;-78
2022/07/28 09:39:07;;;;;;;3.30;2.50;;;;;;;27.53;43.97;101129.40;108617;1238;59068;-76
2022/07/28 09:41:54;;;;;;;3.90;2.40;;;;;;;27.65;43.85;101127.16;108506;1235;62386;-74
2022/07/28 09:44:25;;;;;;;4.50;2.40;;;;;;;27.86;43.26;101127.84;108872;1234;72116;-75
2022/07/28 09:46:55;;;;;;;6.50;2.70;;;;;;;28.04;42.86;101127.23;108848;1235;70080;-76
2022/07/28 09:49:43;;;;;;;3.60;2.10;;;;;;;28.38;42.08;101127.20;108947;1234;74242;-75
2022/07/28 09:52:11;;;;;;;4.10;2.40;;;;;;;28.45;42.17;101126.98;108640;1237;58956;-79
2022/07/28 09:54:58;;;;;;;3.10;2.40;;;;;;;28.62;41.86;101130.70;108901;1237;59792;-76
2022/07/28 09:57:31;;;;;;;5.90;2.50;;;;;;;28.56;41.35;101133.17;109009;1235;62793;-76
2022/07/28 10:00:11;;;;;;;4.60;2.10;;;;;;;28.72;41.11;101132.63;109038;1235;73190;-73
2022/07/28 10:02:39;;;;;;;2.80;1.80;;;;;;;28.87;40.61;101127.11;109036;1238;72491;-76
2022/07/28 10:05:07;;;;;;;4.00;2.50;;;;;;;29.17;39.37;101121.28;108788;1238;62853;-76
2022/07/28 10:07:48;;;;;;;2.80;1.90;;;;;;;29.17;39.72;101124.35;109012;1234;60442;-76
2022/07/28 10:10:19;;;;;;;9.60;2.30;;;;;;;29.18;39.26;101123.72;108872;1235;61102;-75
2022/07/28 10:12:46;;;;;;;3.60;2.00;;;;;;;29.23;39.65;101126.20;108656;1237;73421;-76
2022/07/28 10:18:05;;;;;;;5.60;2.20;;;;;;;29.32;38.77;101122.87;109081;1234;69064;-77
2022/07/28 10:20:33;;;;;;;3.30;2.00;;;;;;;28.89;39.16;101124.24;108879;1235;74623;-76
2022/07/28 10:23:04;;;;;;;2.40;1.80;;;;;;;29.18;39.16;101127.05;108968;1235;61783;-76
2022/07/28 10:25:34;;;;;;;4.40;2.50;;;;;;;29.34;38.59;101128.39;108624;1237;62303;-76
2022/07/28 10:28:03;;;;;;;4.10;2.20;;;;;;;29.11;38.68;101120.27;109209;1235;75362;-76
2022/07/28 10:30:39;;;;;;;4.00;1.90;;;;;;;29.47;37.81;101123.56;109226;1234;74946;-77
2022/07/28 10:33:13;;;;;;;4.90;2.10;;;;;;;29.55;37.43;101124.73;109166;1236;59545;-75
2022/07/28 10:35:42;;;;;;;5.60;1.80;;;;;;;29.49;37.67;101126.73;108817;1235;73136;-77
2022/07/28 10:38:26;;;;;;;3.10;1.60;;;;;;;29.68;37.16;101126.55;109119;1234;57444;-76
2022/07/28 10:40:57;;;;;;;5.00;2.40;;;;;;;29.79;36.53;101128.52;108994;1237;58959;-76
2022/07/28 10:43:26;;;;;;;2.20;1.80;;;;;;;29.72;36.28;101125.46;109361;1235;62087;-77
2022/07/28 10:45:57;;;;;;;3.70;2.00;;;;;;;29.79;36.20;101124.36;109074;1238;60830;-78
2022/07/28 10:48:39;;;;;;;5.50;2.00;;;;;;;30.04;35.84;101122.29;109255;1235;60018;-77
2022/07/28 10:51:11;;;;;;;3.90;1.70;;;;;;;30.40;35.05;101111.85;109173;1238;72253;-76
2022/07/28 10:54:05;;;;;;;3.60;1.70;;;;;;;30.71;34.39;101110.98;109151;1237;59023;-77
2022/07/28 10:56:55;;;;;;;2.80;1.50;;;;;;;31.18;34.30;101113.77;109500;1234;59024;-77
2022/07/28 10:59:47;;;;;;;4.70;1.50;;;;;;;31.67;32.93;101116.73;109228;1234;73698;-76
2022/07/28 11:02:44;;;;;;;3.00;1.70;;;;;;;31.29;33.21;101109.42;109223;1235;61358;-76
2022/07/28 11:05:38;;;;;;;4.80;1.50;;;;;;;30.92;33.49;101105.33;109025;1235;69763;-78
2022/07/28 11:08:09;;;;;;;3.20;1.80;;;;;;;31.39;33.03;101104.06;108903;1238;62913;-78
2022/07/28 11:10:50;;;;;;;2.80;1.60;;;;;;;31.55;32.93;101099.95;109039;1237;58914;-79
2022/07/28 11:13:29;;;;;;;3.40;1.60;;;;;;;31.50;32.20;101101.60;109216;1235;58939;-78
2022/07/28 11:16:14;;;;;;;2.50;1.50;;;;;;;32.09;31.71;101097.97;108874;1235;73675;-77
2022/07/28 11:19:09;;;;;;;2.50;1.70;;;;;;;32.34;31.30;101095.91;109257;1235;72145;-80
2022/07/28 11:22:20;;;;;;;2.40;1.40;;;;;;;32.21;31.57;101094.66;109318;1234;70682;-77
2022/07/28 11:27:45;;;;;;;2.50;1.60;;;;;;;32.43;30.84;101091.67;109319;1234;59074;-77
2022/07/28 11:30:41;;;;;;;3.50;1.50;;;;;;;32.64;30.29;101091.95;109357;1233;61408;-75
2022/07/28 11:33:09;;;;;;;2.70;1.60;;;;;;;32.54;30.42;101092.02;108941;1237;73324;-76
2022/07/28 11:35:39;;;;;;;3.20;1.50;;;;;;;32.44;30.60;101092.55;108920;1237;61536;-78
2022/07/28 11:38:13;;;;;;;4.10;1.80;;;;;;;32.39;30.69;101091.83;109188;1235;68838;-80
2022/07/28 11:40:47;;;;;;;3.70;1.70;;;;;;;31.94;30.90;101087.37;108904;1238;62856;-76
2022/07/28 11:43:23;;;;;;;2.20;1.50;;;;;;;32.55;30.37;101091.52;108971;1238;57760;-77
2022/07/28 11:46:03;;;;;;;6.00;2.10;;;;;;;33.35;29.27;101095.63;109406;1235;61339;-77